Time;durP1;ratioP1;P1;durP2;ratioP2;P2;SDS_P1;SDS_P2;PMS_P1;PMS_P2;Temp;Humidity;BMP_temperature;BMP_pressure;BME280_temperature;BME280_humidity;BME280_pressure;Samples;Min_cycle;Max_cycle;Signal;HPM_P1;HPM_P2
2022/07/01 00:02:51;;;;;;;22.10;14.70;;;23.20;97.30;;;;;;4996215;28;20423;-86
2022/07/01 00:05:52;;;;;;;22.90;15.23;;;23.20;97.30;;;;;;4993789;28;21085;-88
2022/07/01 00:08:20;;;;;;;23.67;15.60;;;23.10;97.30;;;;;;4989729;28;20412;-89
2022/07/01 00:10:49;;;;;;;22.60;15.60;;;23.10;97.30;;;;;;4996718;28;20452;-88
2022/07/01 00:17:12;;;;;;;23.10;15.07;;;23.00;97.30;;;;;;5008428;28;20519;-87
2022/07/01 00:20:21;;;;;;;23.17;15.53;;;23.00;97.30;;;;;;4985337;28;20472;-88
2022/07/01 00:23:10;;;;;;;29.00;16.03;;;22.90;97.30;;;;;;4930994;29;20445;-89
2022/07/01 00:25:42;;;;;;;23.77;14.63;;;22.90;97.30;;;;;;4931918;29;20470;-88
2022/07/01 00:28:42;;;;;;;22.93;15.23;;;22.80;97.30;;;;;;4914414;29;20471;-90
2022/07/01 00:31:11;;;;;;;22.10;15.10;;;22.80;97.30;;;;;;4915507;29;20487;-88
2022/07/01 00:33:42;;;;;;;23.70;15.80;;;22.80;97.30;;;;;;4931078;29;20514;-89
2022/07/01 00:37:12;;;;;;;26.10;14.90;;;22.80;97.30;;;;;;4931545;29;20420;-88
2022/07/01 00:39:22;;;;;;;23.13;15.20;;;22.80;97.30;;;;;;4921045;29;20515;-89
2022/07/01 00:42:19;;;;;;;24.90;15.07;;;22.80;97.30;;;;;;4917830;29;20880;-89
2022/07/01 00:44:52;;;;;;;20.93;15.07;;;22.80;97.30;;;;;;4923647;29;21010;-88
2022/07/01 00:48:02;;;;;;;20.53;13.90;;;22.70;97.30;;;;;;4985303;28;20416;-88
2022/07/01 00:50:31;;;;;;;27.60;14.53;;;22.70;97.30;;;;;;5008824;28;20431;-88
2022/07/01 00:56:50;;;;;;;22.43;15.03;;;22.60;97.30;;;;;;4943342;29;20455;-87
2022/07/01 00:59:22;;;;;;;19.27;14.20;;;22.60;97.30;;;;;;4981612;28;20471;-88
2022/07/01 01:02:22;;;;;;;22.93;15.63;;;22.50;97.30;;;;;;4995462;28;20419;-89
2022/07/01 01:05:50;;;;;;;24.87;15.50;;;22.50;97.30;;;;;;4995333;28;20413;-89
2022/07/01 01:08:52;;;;;;;24.53;15.53;;;22.40;97.30;;;;;;4917457;29;20438;-88
2022/07/01 01:11:21;;;;;;;18.83;13.43;;;22.40;97.30;;;;;;4919338;28;20431;-88
2022/07/01 01:14:10;;;;;;;24.03;14.67;;;22.40;97.30;;;;;;4990463;28;20421;-88
2022/07/01 01:17:22;;;;;;;24.30;15.00;;;22.30;97.30;;;;;;4971052;28;20413;-88
2022/07/01 01:20:22;;;;;;;25.00;14.80;;;22.30;97.30;;;;;;4982232;28;20480;-88
2022/07/01 01:23:21;;;;;;;22.03;14.57;;;22.30;97.30;;;;;;4998976;28;20420;-89
2022/07/01 01:26:23;;;;;;;23.90;15.90;;;22.30;97.30;;;;;;4986738;28;20421;-89
2022/07/01 01:29:52;;;;;;;25.57;15.73;;;22.30;97.30;;;;;;4986617;28;20455;-89
2022/07/01 01:32:32;;;;;;;22.10;14.40;;;22.20;97.30;;;;;;4902062;29;20423;-89
2022/07/01 01:35:45;;;;;;;;;;;;;;;;;;;;;
2022/07/01 01:38:21;;;;;;;19.50;12.57;;;22.20;97.30;;;;;;5013938;28;20423;-88
2022/07/01 01:40:52;;;;;;;21.20;14.63;;;22.20;97.30;;;;;;4996035;28;21062;-89
2022/07/01 01:43:21;;;;;;;27.27;15.07;;;22.10;97.30;;;;;;4996379;28;20914;-89
2022/07/01 01:46:12;;;;;;;23.10;14.20;;;22.10;97.30;;;;;;5013938;28;20411;-88
2022/07/01 01:49:21;;;;;;;23.83;14.57;;;22.10;97.30;;;;;;5003366;28;20424;-89
2022/07/01 01:52:43;;;;;;;20.17;13.80;;;22.00;97.30;;;;;;4988368;28;20420;-88
2022/07/01 01:55:12;;;;;;;19.70;13.67;;;22.00;97.30;;;;;;4989175;28;20519;-88
2022/07/01 01:57:41;;;;;;;21.77;14.47;;;22.00;97.30;;;;;;4996731;28;20450;-88
2022/07/01 02:03:59;;;;;;;21.03;13.80;;;22.00;97.30;;;;;;4893095;29;20449;-88
2022/07/01 02:06:42;;;;;;;22.70;15.07;;;21.90;97.30;;;;;;4880605;29;20576;-88
2022/07/01 02:09:20;;;;;;;20.03;13.50;;;22.00;97.30;;;;;;4880520;29;20448;-89
2022/07/01 02:12:01;;;;;;;20.07;12.77;;;22.00;97.30;;;;;;4896139;29;20441;-89
2022/07/01 02:14:32;;;;;;;18.07;13.10;;;22.00;97.30;;;;;;4880185;29;20433;-90
2022/07/01 02:17:53;;;;;;;20.33;13.30;;;22.00;97.30;;;;;;4912051;29;20425;-88
2022/07/01 02:19:52;;;;;;;23.07;14.53;;;22.00;97.30;;;;;;4884305;29;20943;-88
2022/07/01 02:23:12;;;;;;;19.57;12.70;;;22.00;97.30;;;;;;5002269;28;20421;-89
2022/07/01 02:26:12;;;;;;;19.53;13.67;;;22.00;97.30;;;;;;4986462;28;20224;-89
2022/07/01 02:32:32;;;;;;;22.00;14.07;;;22.00;97.30;;;;;;4850404;29;20432;-89
2022/07/01 02:35:42;;;;;;;21.63;13.77;;;22.00;97.30;;;;;;4824605;29;20593;-89
2022/07/01 02:38:43;;;;;;;20.87;13.70;;;22.00;97.30;;;;;;4815715;29;20432;-88
2022/07/01 02:42:22;;;;;;;19.23;11.77;;;22.00;97.30;;;;;;4841516;29;20553;-89
2022/07/01 02:47:44;;;;;;;18.97;13.93;;;22.00;97.30;;;;;;4869146;29;20462;-88
2022/07/01 02:50:23;;;;;;;19.80;13.80;;;22.00;97.30;;;;;;4875800;29;20472;-88
2022/07/01 02:52:52;;;;;;;20.17;14.13;;;22.00;97.30;;;;;;4881612;29;20425;-88
2022/07/01 02:56:01;;;;;;;19.43;13.83;;;22.00;97.30;;;;;;4889143;29;20814;-88
2022/07/01 02:58:32;;;;;;;25.43;13.60;;;22.00;97.30;;;;;;4896746;29;20424;-88
2022/07/01 03:04:52;;;;;;;20.80;13.30;;;22.00;97.30;;;;;;4850435;29;20427;-88
2022/07/01 03:07:52;;;;;;;20.60;12.77;;;21.90;97.30;;;;;;4829046;29;21015;-89
2022/07/01 03:14:32;;;;;;;19.10;13.30;;;21.80;97.30;;;;;;4861243;29;20418;-86
2022/07/01 03:17:32;;;;;;;24.43;13.73;;;21.80;97.30;;;;;;4853849;29;20441;-84
2022/07/01 03:24:41;;;;;;;;;;;;;;;;;;;;;
2022/07/01 03:30:42;;;;;;;19.90;11.27;;;21.70;97.30;;;;;;4776887;29;20480;-85
2022/07/01 03:33:23;;;;;;;17.63;9.70;;;21.70;97.30;;;;;;4770716;29;20426;-87
2022/07/01 03:42:52;;;;;;;15.40;10.53;;;21.80;97.30;;;;;;4852215;29;20454;-90
2022/07/01 03:45:33;;;;;;;14.80;10.20;;;21.80;97.30;;;;;;4862962;29;20431;-89
2022/07/01 03:49:02;;;;;;;14.90;9.67;;;21.80;97.30;;;;;;4859819;29;20972;-85
2022/07/01 03:51:32;;;;;;;14.93;10.17;;;21.80;97.30;;;;;;4877715;29;20462;-89
2022/07/01 03:54:43;;;;;;;16.00;10.73;;;21.80;97.30;;;;;;4860147;29;20466;-89
2022/07/01 04:02:18;;;;;;;22.17;12.20;;;21.70;97.30;;;;;;5021628;28;20469;-87
2022/07/01 04:04:44;;;;;;;19.00;12.60;;;21.70;97.30;;;;;;4994377;28;20476;-87
2022/07/01 04:07:11;;;;;;;19.50;11.93;;;21.70;97.30;;;;;;4993116;28;20507;-87
2022/07/01 04:09:37;;;;;;;17.00;12.00;;;21.80;97.30;;;;;;4990464;28;20181;-83
2022/07/01 04:12:03;;;;;;;23.07;13.03;;;21.70;97.30;;;;;;4993895;28;20942;-91
2022/07/01 04:14:30;;;;;;;22.23;13.23;;;21.70;97.30;;;;;;4997723;28;20518;-90
2022/07/01 04:16:56;;;;;;;17.60;12.03;;;21.70;97.30;;;;;;4995851;28;20460;-89
2022/07/01 04:19:22;;;;;;;24.10;14.20;;;21.80;97.30;;;;;;4996795;28;20471;-89
2022/07/01 04:24:33;;;;;;;20.50;14.20;;;21.80;97.30;;;;;;5022861;28;20195;-90
2022/07/01 04:27:00;;;;;;;24.30;15.83;;;21.80;97.30;;;;;;4994165;28;20524;-91
2022/07/01 04:29:28;;;;;;;24.00;16.03;;;21.70;97.30;;;;;;4989184;28;20425;-89
2022/07/01 04:31:54;;;;;;;24.43;16.10;;;21.70;97.30;;;;;;4995465;28;20856;-90
2022/07/01 04:34:20;;;;;;;27.87;16.07;;;21.70;97.30;;;;;;4989151;28;20429;-89
2022/07/01 04:36:52;;;;;;;23.37;14.93;;;21.70;97.30;;;;;;4976516;28;20193;-90
2022/07/01 04:39:18;;;;;;;24.63;14.87;;;21.70;97.30;;;;;;5002776;28;20205;-88
2022/07/01 04:41:59;;;;;;;23.33;14.30;;;21.70;97.30;;;;;;5017502;28;20416;-90
2022/07/01 04:44:28;;;;;;;22.90;13.67;;;21.70;97.30;;;;;;5001682;28;20421;-89
2022/07/01 04:46:55;;;;;;;21.60;13.13;;;21.70;97.30;;;;;;4977481;28;20437;-89
2022/07/01 04:49:21;;;;;;;22.20;14.17;;;21.70;97.30;;;;;;5007120;28;20439;-89
2022/07/01 04:51:47;;;;;;;22.10;13.47;;;21.70;97.30;;;;;;5007864;28;20429;-89
2022/07/01 04:54:12;;;;;;;25.20;15.20;;;21.70;97.30;;;;;;4997782;28;20184;-89
2022/07/01 04:56:38;;;;;;;21.93;13.90;;;21.70;97.30;;;;;;4995588;28;20245;-88
2022/07/01 04:59:05;;;;;;;21.43;15.00;;;21.70;97.30;;;;;;4989761;28;20193;-89
2022/07/01 05:01:30;;;;;;;20.50;14.93;;;21.70;97.30;;;;;;4998877;28;20523;-84
2022/07/01 05:03:57;;;;;;;18.17;12.93;;;21.60;97.30;;;;;;4997353;28;20905;-87
2022/07/01 05:06:23;;;;;;;24.60;13.90;;;21.50;97.30;;;;;;4997316;28;20189;-89
2022/07/01 05:09:12;;;;;;;17.10;12.60;;;21.40;97.30;;;;;;4997815;28;20444;-89
2022/07/01 05:11:39;;;;;;;20.40;12.93;;;21.40;97.30;;;;;;4994312;28;20429;-89
2022/07/01 05:14:06;;;;;;;22.63;13.60;;;21.30;97.30;;;;;;4997145;28;20433;-90
2022/07/01 05:16:31;;;;;;;19.80;13.70;;;21.20;97.30;;;;;;4995375;28;20428;-90
2022/07/01 05:21:56;;;;;;;21.50;14.10;;;21.10;97.30;;;;;;4998594;28;20203;-89
2022/07/01 05:24:34;;;;;;;22.07;14.20;;;21.10;97.30;;;;;;4994073;28;20460;-88
2022/07/01 05:27:01;;;;;;;21.83;13.87;;;21.10;97.30;;;;;;4993883;28;20884;-90
2022/07/01 05:29:27;;;;;;;19.97;13.57;;;21.10;97.30;;;;;;4994748;28;20512;-88
2022/07/01 05:31:53;;;;;;;19.30;13.53;;;21.10;97.30;;;;;;4993815;28;21173;-88
2022/07/01 05:34:19;;;;;;;22.37;15.50;;;21.00;97.30;;;;;;4993671;28;20504;-88
2022/07/01 05:36:45;;;;;;;21.53;15.60;;;21.00;97.30;;;;;;4993413;28;20206;-89
2022/07/01 05:39:11;;;;;;;25.33;16.50;;;21.00;97.30;;;;;;4994116;28;20449;-89
2022/07/01 05:41:37;;;;;;;24.53;16.63;;;21.00;97.30;;;;;;5010801;28;20185;-89
2022/07/01 05:44:03;;;;;;;26.93;17.57;;;21.00;97.30;;;;;;4997140;28;20441;-89
2022/07/01 05:46:29;;;;;;;24.30;16.53;;;21.00;97.30;;;;;;4998184;28;20464;-89
2022/07/01 05:48:54;;;;;;;27.80;18.03;;;21.00;97.30;;;;;;4996760;28;20294;-91
2022/07/01 05:51:20;;;;;;;27.10;17.53;;;20.90;97.30;;;;;;4997029;28;20204;-88
2022/07/01 05:53:47;;;;;;;27.67;18.33;;;20.90;97.30;;;;;;4996860;28;20178;-89
2022/07/01 05:56:13;;;;;;;35.43;20.47;;;20.80;97.30;;;;;;4996764;28;20191;-89
2022/07/01 05:58:38;;;;;;;34.97;21.33;;;20.60;97.30;;;;;;4999457;28;20507;-90
2022/07/01 06:01:04;;;;;;;35.97;22.23;;;20.50;97.30;;;;;;4992232;28;20228;-89
2022/07/01 06:03:29;;;;;;;35.50;21.80;;;20.40;97.30;;;;;;4999681;28;20173;-88
2022/07/01 06:05:55;;;;;;;31.33;19.47;;;20.30;97.30;;;;;;4996458;28;20174;-89
2022/07/01 06:08:20;;;;;;;28.00;18.63;;;20.30;97.30;;;;;;4996561;28;20260;-89
2022/07/01 06:10:46;;;;;;;34.57;19.60;;;20.20;97.30;;;;;;4996568;28;20726;-89
2022/07/01 06:13:12;;;;;;;26.97;18.17;;;20.10;97.30;;;;;;4996409;28;20713;-89
2022/07/01 06:15:37;;;;;;;31.03;19.23;;;20.10;97.30;;;;;;4999522;28;20201;-89
2022/07/01 06:18:03;;;;;;;29.83;19.03;;;20.10;97.30;;;;;;4996294;28;20240;-89
2022/07/01 06:20:29;;;;;;;31.33;19.83;;;20.10;97.30;;;;;;4997695;28;20202;-88
2022/07/01 06:22:54;;;;;;;36.40;19.17;;;20.10;97.30;;;;;;4996331;28;20640;-90
2022/07/01 06:25:20;;;;;;;31.53;20.40;;;20.10;97.30;;;;;;4996468;28;20256;-90
2022/07/01 06:27:46;;;;;;;29.40;17.63;;;20.10;97.30;;;;;;4996260;28;20197;-90
2022/07/01 06:30:12;;;;;;;27.87;17.13;;;20.10;97.30;;;;;;4996390;28;20655;-89
2022/07/01 06:32:38;;;;;;;30.27;18.50;;;20.10;97.30;;;;;;4998856;28;20186;-89
2022/07/01 06:35:04;;;;;;;27.53;17.67;;;20.10;97.30;;;;;;4996107;28;20461;-89
2022/07/01 06:37:33;;;;;;;35.47;19.47;;;20.10;97.30;;;;;;4997391;28;20856;-90
2022/07/01 06:39:59;;;;;;;32.53;18.50;;;20.00;97.30;;;;;;4995981;28;20461;-89
2022/07/01 06:42:25;;;;;;;32.67;19.37;;;19.90;97.30;;;;;;4996828;28;20456;-89
2022/07/01 06:44:51;;;;;;;28.47;17.10;;;19.80;97.30;;;;;;4996014;28;20424;-88
2022/07/01 06:47:17;;;;;;;24.40;16.57;;;19.80;97.30;;;;;;4995876;28;20201;-89
2022/07/01 06:49:42;;;;;;;32.53;18.10;;;19.80;97.30;;;;;;4998774;28;20215;-89
2022/07/01 06:52:08;;;;;;;26.70;16.20;;;19.70;97.30;;;;;;4996253;28;20507;-89
2022/07/01 06:54:37;;;;;;;35.37;18.30;;;19.70;97.30;;;;;;4997363;28;20181;-89
2022/07/01 06:57:04;;;;;;;28.93;16.27;;;19.60;97.30;;;;;;4995370;28;20550;-88
2022/07/01 06:59:29;;;;;;;27.57;16.80;;;19.60;97.30;;;;;;4996406;28;20889;-89
2022/07/01 07:01:55;;;;;;;24.40;16.33;;;19.50;97.30;;;;;;4995309;28;20531;-90
2022/07/01 07:04:20;;;;;;;29.20;17.00;;;19.50;97.30;;;;;;4995549;28;20265;-88
2022/07/01 07:06:46;;;;;;;31.10;16.40;;;19.50;97.30;;;;;;4994922;28;20201;-88
2022/07/01 07:09:12;;;;;;;30.80;16.87;;;19.50;97.30;;;;;;4995095;28;20180;-90
2022/07/01 07:11:39;;;;;;;24.57;15.97;;;19.50;97.30;;;;;;4997962;28;20170;-89
2022/07/01 07:14:04;;;;;;;27.53;17.30;;;19.50;97.30;;;;;;4995204;28;20178;-88
2022/07/01 07:16:30;;;;;;;25.13;15.30;;;19.60;97.30;;;;;;4997455;28;21022;-89
2022/07/01 07:18:56;;;;;;;24.40;14.17;;;19.60;97.30;;;;;;5016176;28;20180;-88
2022/07/01 07:21:21;;;;;;;20.77;13.03;;;19.60;97.30;;;;;;4994878;28;20245;-89
2022/07/01 07:23:47;;;;;;;21.40;14.17;;;19.50;97.30;;;;;;4995112;28;20185;-89
2022/07/01 07:26:13;;;;;;;17.37;11.53;;;19.50;97.30;;;;;;4995352;28;20178;-89
2022/07/01 07:28:39;;;;;;;15.50;9.40;;;19.60;97.30;;;;;;4998042;28;20245;-89
2022/07/01 07:31:05;;;;;;;9.30;6.83;;;19.60;97.30;;;;;;4994823;28;20424;-89
2022/07/01 07:33:31;;;;;;;9.63;6.37;;;19.60;97.30;;;;;;4996700;28;20832;-88
2022/07/01 07:35:58;;;;;;;8.27;6.07;;;19.60;97.30;;;;;;4994856;28;20428;-88
2022/07/01 07:38:24;;;;;;;6.90;4.53;;;19.60;97.30;;;;;;4995102;28;20277;-88
2022/07/01 07:40:50;;;;;;;7.03;4.53;;;19.50;97.30;;;;;;4995043;28;20551;-88
2022/07/01 07:43:15;;;;;;;5.57;3.73;;;19.50;97.30;;;;;;4994840;28;20174;-89
2022/07/01 07:45:42;;;;;;;3.77;3.37;;;19.60;97.30;;;;;;4998123;28;20180;-90
2022/07/01 07:48:09;;;;;;;6.63;3.17;;;19.60;97.30;;;;;;4995260;28;20663;-88
2022/07/01 07:50:35;;;;;;;5.33;3.50;;;19.50;97.30;;;;;;4996613;28;20421;-90
2022/07/01 07:53:01;;;;;;;4.43;3.50;;;19.50;97.30;;;;;;4994785;28;20810;-88
2022/07/01 07:55:27;;;;;;;7.97;5.10;;;19.50;97.30;;;;;;4995628;28;20428;-89
2022/07/01 07:57:54;;;;;;;10.20;6.73;;;19.40;97.30;;;;;;4994317;28;20630;-88
2022/07/01 08:00:19;;;;;;;13.67;8.70;;;19.40;97.30;;;;;;4994183;28;20473;-88
2022/07/01 08:02:45;;;;;;;11.50;8.03;;;19.30;97.30;;;;;;4996931;28;20481;-89
2022/07/01 08:05:11;;;;;;;16.07;9.10;;;19.20;97.30;;;;;;4997298;28;20169;-88
2022/07/01 08:07:38;;;;;;;13.80;9.57;;;19.10;97.30;;;;;;4996749;28;20439;-87
2022/07/01 08:10:05;;;;;;;17.60;9.07;;;19.10;97.30;;;;;;4997119;28;20184;-88
2022/07/01 08:12:31;;;;;;;12.70;8.80;;;19.00;97.30;;;;;;4996804;28;20422;-88
2022/07/01 08:14:57;;;;;;;11.90;9.07;;;18.90;97.30;;;;;;4994887;28;20500;-87
2022/07/01 08:17:22;;;;;;;12.83;8.00;;;18.80;97.30;;;;;;4996776;28;20209;-89
2022/07/01 08:19:49;;;;;;;15.50;10.23;;;18.60;97.30;;;;;;4993659;28;20204;-88
2022/07/01 08:22:15;;;;;;;17.53;10.50;;;18.60;97.30;;;;;;4993743;28;20224;-87
2022/07/01 08:24:40;;;;;;;13.43;9.10;;;18.60;97.30;;;;;;4995948;28;20981;-89
2022/07/01 08:27:06;;;;;;;13.73;8.60;;;18.50;97.30;;;;;;4993264;28;20189;-88
2022/07/01 08:29:31;;;;;;;13.60;8.70;;;18.50;97.30;;;;;;4995938;28;20178;-88
2022/07/01 08:31:57;;;;;;;15.27;10.20;;;18.40;97.30;;;;;;4993442;28;20221;-87
2022/07/01 08:34:23;;;;;;;17.33;11.27;;;18.40;97.30;;;;;;4986580;28;20174;-86
2022/07/01 08:36:48;;;;;;;16.03;9.37;;;18.30;97.30;;;;;;4973717;28;20194;-85
2022/07/01 08:39:14;;;;;;;15.87;10.37;;;18.20;97.30;;;;;;4973114;28;20190;-85
2022/07/01 08:41:41;;;;;;;23.03;11.70;;;18.10;97.30;;;;;;4976220;28;20635;-85
2022/07/01 08:44:08;;;;;;;19.50;12.67;;;18.00;97.30;;;;;;4973136;28;20206;-86
2022/07/01 08:46:34;;;;;;;14.33;10.43;;;17.90;97.30;;;;;;4974960;28;20418;-86
2022/07/01 08:49:01;;;;;;;19.23;12.10;;;17.90;97.30;;;;;;4980609;28;20833;-85
2022/07/01 08:51:26;;;;;;;24.10;12.07;;;17.90;97.30;;;;;;4993584;28;20919;-85
2022/07/01 08:53:52;;;;;;;17.83;11.73;;;17.90;97.30;;;;;;4992328;28;20425;-89
2022/07/01 08:59:02;;;;;;;19.87;11.83;;;17.80;97.30;;;;;;5007615;28;20211;-85
2022/07/01 09:01:27;;;;;;;19.57;11.93;;;17.80;97.30;;;;;;4993187;28;20508;-84
2022/07/01 09:04:12;;;;;;;24.10;12.70;;;17.80;97.30;;;;;;4992541;28;20236;-86
2022/07/01 09:06:38;;;;;;;21.47;12.57;;;17.90;97.30;;;;;;4997912;28;20213;-86
2022/07/01 09:09:12;;;;;;;17.43;11.20;;;17.90;97.30;;;;;;5003408;28;20432;-85
2022/07/01 09:11:53;;;;;;;17.67;11.33;;;17.80;97.30;;;;;;5013389;28;20192;-86
2022/07/01 09:14:19;;;;;;;20.80;11.27;;;17.80;97.30;;;;;;5012884;28;20444;-85
2022/07/01 09:16:50;;;;;;;18.40;10.70;;;17.90;97.30;;;;;;4984141;28;20479;-85
2022/07/01 09:19:20;;;;;;;15.70;10.83;;;17.80;97.30;;;;;;4992356;28;20417;-87
2022/07/01 09:21:57;;;;;;;19.73;11.70;;;17.80;97.30;;;;;;4987982;28;20423;-86
2022/07/01 09:24:34;;;;;;;20.50;12.43;;;17.80;97.30;;;;;;4995351;28;20428;-86
2022/07/01 09:27:08;;;;;;;22.00;12.90;;;17.80;97.30;;;;;;4992597;28;20960;-86
2022/07/01 09:29:35;;;;;;;23.73;12.13;;;17.80;97.30;;;;;;4994613;28;20435;-85
2022/07/01 09:32:05;;;;;;;19.93;13.57;;;17.70;97.30;;;;;;4992551;28;20930;-87
2022/07/01 09:34:35;;;;;;;20.57;13.10;;;17.60;97.30;;;;;;4993617;28;20461;-85
2022/07/01 09:37:02;;;;;;;21.43;12.97;;;17.60;97.30;;;;;;4993212;28;20456;-85
2022/07/01 09:39:27;;;;;;;19.87;13.43;;;17.60;97.30;;;;;;4996976;28;20460;-85
2022/07/01 09:41:57;;;;;;;20.50;13.60;;;17.60;97.30;;;;;;4995097;28;20420;-85
2022/07/01 09:44:23;;;;;;;22.50;13.67;;;17.50;97.30;;;;;;4999221;28;20188;-86
2022/07/01 09:46:56;;;;;;;19.67;12.47;;;17.60;97.30;;;;;;4996342;28;20436;-86
2022/07/01 09:49:23;;;;;;;18.70;12.77;;;17.50;97.30;;;;;;4982921;28;20431;-86
2022/07/01 09:51:50;;;;;;;26.63;14.40;;;17.50;97.30;;;;;;5005851;28;20515;-86
2022/07/01 09:54:16;;;;;;;21.80;13.70;;;17.50;97.30;;;;;;4975756;28;20426;-85
2022/07/01 09:56:41;;;;;;;22.70;13.70;;;17.50;97.30;;;;;;4995114;28;20427;-85
2022/07/01 09:59:07;;;;;;;19.73;13.33;;;17.40;97.30;;;;;;4992447;28;20174;-85
2022/07/01 10:01:33;;;;;;;21.80;14.43;;;17.40;97.30;;;;;;4997054;28;20291;-86
2022/07/01 10:04:03;;;;;;;33.07;15.40;;;17.40;97.30;;;;;;5016144;28;20176;-85
2022/07/01 10:07:03;;;;;;;25.00;15.07;;;17.40;97.30;;;;;;4998076;28;20452;-85
2022/07/01 10:09:42;;;;;;;22.17;14.00;;;17.40;97.30;;;;;;4933592;28;20429;-86
2022/07/01 10:12:43;;;;;;;21.73;13.47;;;17.40;97.30;;;;;;4985362;28;20426;-86
2022/07/01 10:15:11;;;;;;;28.10;15.43;;;17.40;97.30;;;;;;4987167;28;20427;-85
2022/07/01 10:17:43;;;;;;;23.53;15.00;;;17.40;97.30;;;;;;4998137;28;20459;-86
2022/07/01 10:20:15;;;;;;;25.60;15.00;;;17.40;97.30;;;;;;4995178;28;20456;-86
2022/07/01 10:22:41;;;;;;;26.07;14.77;;;17.40;97.30;;;;;;5005236;28;20431;-85
2022/07/01 10:25:35;;;;;;;27.17;16.30;;;17.40;97.30;;;;;;4994827;28;20425;-86
2022/07/01 10:31:35;;;;;;;26.83;15.67;;;17.40;97.30;;;;;;4988108;28;20421;-86
2022/07/01 10:34:04;;;;;;;27.13;17.37;;;17.40;97.30;;;;;;4990798;28;20429;-86
2022/07/01 10:36:33;;;;;;;37.23;15.83;;;17.40;97.30;;;;;;4997950;28;20456;-86
2022/07/01 10:41:34;;;;;;;29.90;16.97;;;17.50;97.30;;;;;;5015430;28;20509;-85
2022/07/01 10:44:11;;;;;;;24.13;14.90;;;17.50;97.30;;;;;;4982118;28;21220;-86
2022/07/01 10:46:44;;;;;;;21.10;14.23;;;17.50;97.30;;;;;;4984351;28;20440;-86
2022/07/01 10:49:12;;;;;;;20.03;12.67;;;17.50;97.30;;;;;;4993854;28;20463;-85
2022/07/01 10:51:55;;;;;;;18.70;12.50;;;17.40;97.30;;;;;;5014396;28;20419;-85
2022/07/01 10:54:36;;;;;;;16.23;10.97;;;17.30;97.30;;;;;;4994837;28;20448;-85
2022/07/01 10:57:19;;;;;;;17.70;10.50;;;17.10;97.30;;;;;;4990230;28;20435;-84
2022/07/01 11:00:00;;;;;;;13.87;9.70;;;17.10;97.30;;;;;;4977720;28;21013;-85
2022/07/01 11:02:36;;;;;;;14.93;9.93;;;17.10;97.30;;;;;;4992977;28;20459;-85
2022/07/01 11:05:09;;;;;;;17.40;9.70;;;17.10;97.30;;;;;;4984585;28;20511;-84
2022/07/01 11:07:37;;;;;;;20.53;10.80;;;17.10;97.30;;;;;;4996299;28;20437;-85
2022/07/01 11:10:07;;;;;;;14.20;10.07;;;17.10;97.30;;;;;;4991093;28;20420;-84
2022/07/01 11:12:33;;;;;;;16.47;11.57;;;17.10;97.30;;;;;;4994325;28;20491;-84
2022/07/01 11:15:02;;;;;;;15.77;10.83;;;17.10;97.30;;;;;;4991282;28;20427;-84
2022/07/01 11:17:28;;;;;;;15.43;9.73;;;17.20;97.30;;;;;;4992270;28;20606;-84
2022/07/01 11:19:58;;;;;;;14.97;10.47;;;17.10;97.30;;;;;;4984980;28;20486;-84
2022/07/01 11:22:30;;;;;;;15.17;10.63;;;17.10;97.30;;;;;;4988156;28;20451;-84
2022/07/01 11:25:05;;;;;;;14.37;9.27;;;17.10;97.30;;;;;;4993930;28;20515;-85
2022/07/01 11:27:32;;;;;;;14.03;10.20;;;17.20;97.30;;;;;;4995654;28;21143;-85
2022/07/01 11:30:08;;;;;;;11.97;9.27;;;17.20;97.30;;;;;;4993063;28;20518;-84
2022/07/01 11:32:41;;;;;;;12.47;9.00;;;17.10;97.30;;;;;;4996046;28;20439;-85
2022/07/01 11:39:21;;;;;;;15.13;10.07;;;17.10;97.30;;;;;;4993756;28;20459;-85
2022/07/01 11:41:16;;;;;;;12.70;9.20;;;17.10;97.30;;;;;;5015750;28;20451;-80
2022/07/01 11:43:42;;;;;;;13.93;9.83;;;17.10;97.30;;;;;;4997890;28;20427;-81
2022/07/01 11:46:08;;;;;;;13.03;6.30;;;17.10;97.30;;;;;;4988967;28;20413;-81
2022/07/01 11:48:44;;;;;;;5.73;4.17;;;17.10;97.30;;;;;;4987257;28;20309;-82
2022/07/01 11:51:12;;;;;;;3.10;3.00;;;17.00;97.30;;;;;;4988936;28;20417;-82
2022/07/01 11:53:40;;;;;;;3.10;2.30;;;17.00;97.30;;;;;;4997559;28;20432;-82
2022/07/01 11:56:06;;;;;;;2.77;1.83;;;16.90;97.30;;;;;;4996861;28;20557;-82
2022/07/01 11:58:47;;;;;;;3.20;2.30;;;16.90;97.30;;;;;;4996043;28;20920;-79
2022/07/01 12:01:26;;;;;;;3.77;2.10;;;16.80;97.30;;;;;;4990036;28;20295;-79
2022/07/01 12:03:53;;;;;;;4.53;2.30;;;16.80;97.30;;;;;;4990374;28;20851;-80
2022/07/01 12:06:19;;;;;;;5.23;2.63;;;16.80;97.30;;;;;;4997753;28;20452;-79
2022/07/01 12:08:49;;;;;;;3.63;2.43;;;16.70;97.30;;;;;;4994584;28;20445;-79
2022/07/01 12:11:16;;;;;;;2.67;2.20;;;16.70;97.30;;;;;;4994527;28;20823;-79
2022/07/01 12:13:44;;;;;;;5.20;2.73;;;16.70;97.30;;;;;;5000006;28;20428;-80
2022/07/01 12:16:11;;;;;;;5.83;3.60;;;16.70;97.30;;;;;;4994673;28;20452;-80
2022/07/01 12:18:37;;;;;;;3.20;2.80;;;16.70;97.30;;;;;;4997448;28;20453;-80
2022/07/01 12:21:03;;;;;;;4.33;2.70;;;16.60;97.30;;;;;;4990982;28;20457;-79
2022/07/01 12:23:30;;;;;;;3.83;2.50;;;16.70;97.30;;;;;;4997555;28;20409;-79
2022/07/01 12:25:56;;;;;;;5.07;3.03;;;16.70;97.30;;;;;;4981901;28;20788;-80
2022/07/01 12:28:33;;;;;;;10.30;3.20;;;16.70;97.30;;;;;;4991559;28;20450;-80
2022/07/01 12:31:09;;;;;;;5.30;3.27;;;16.80;97.30;;;;;;4980434;28;20417;-80
2022/07/01 12:33:47;;;;;;;5.70;2.63;;;16.80;97.30;;;;;;4988848;28;20487;-80
2022/07/01 12:36:15;;;;;;;2.33;2.20;;;16.80;97.30;;;;;;4995994;28;20471;-80
2022/07/01 12:38:41;;;;;;;2.50;2.37;;;16.70;97.30;;;;;;4993777;28;21068;-79
2022/07/01 12:41:28;;;;;;;3.10;2.53;;;16.50;97.30;;;;;;5002670;28;20565;-79
2022/07/01 12:43:54;;;;;;;2.90;2.40;;;16.50;97.30;;;;;;4991691;28;20411;-80
2022/07/01 12:46:28;;;;;;;3.47;2.63;;;16.40;97.30;;;;;;5004741;28;20814;-79
2022/07/01 12:48:54;;;;;;;3.17;2.93;;;16.40;97.30;;;;;;4996874;28;20250;-79
2022/07/01 12:51:19;;;;;;;6.17;3.40;;;16.40;97.30;;;;;;4994765;28;20508;-80
2022/07/01 12:53:45;;;;;;;7.70;3.13;;;16.50;97.30;;;;;;5019865;28;20244;-79
2022/07/01 12:56:23;;;;;;;3.90;3.13;;;16.50;97.30;;;;;;5015526;28;20519;-80
2022/07/01 12:58:49;;;;;;;4.43;3.40;;;16.50;97.30;;;;;;4987315;28;20551;-79
2022/07/01 13:01:15;;;;;;;4.23;3.20;;;16.50;97.30;;;;;;4975343;28;20484;-80
2022/07/01 13:03:40;;;;;;;6.37;3.90;;;16.60;97.30;;;;;;4988466;28;20185;-79
2022/07/01 13:06:06;;;;;;;6.50;4.60;;;16.60;97.30;;;;;;4993568;28;20177;-79
2022/07/01 13:08:32;;;;;;;9.00;6.73;;;16.60;97.30;;;;;;4994389;28;20943;-80
2022/07/01 13:10:57;;;;;;;5.10;3.97;;;16.60;97.30;;;;;;4994280;28;20647;-79
2022/07/01 13:13:24;;;;;;;6.50;4.47;;;16.70;97.30;;;;;;4998320;28;20235;-79
2022/07/01 13:15:49;;;;;;;5.40;4.27;;;16.70;97.30;;;;;;4997280;28;20189;-79
2022/07/01 13:18:15;;;;;;;7.63;4.47;;;16.80;97.30;;;;;;4996619;28;20440;-80
2022/07/01 13:20:42;;;;;;;10.43;4.90;;;16.80;97.30;;;;;;5000302;28;20369;-80
2022/07/01 13:23:08;;;;;;;12.13;5.50;;;16.80;97.30;;;;;;4997480;28;20174;-79
2022/07/01 13:25:34;;;;;;;8.70;6.20;;;16.80;97.30;;;;;;5016985;28;20959;-80
2022/07/01 13:27:59;;;;;;;8.37;5.33;;;16.80;97.30;;;;;;4996756;28;20281;-80
2022/07/01 13:30:25;;;;;;;10.70;5.77;;;16.80;97.30;;;;;;5002500;28;20670;-78
2022/07/01 13:32:53;;;;;;;9.47;5.13;;;16.80;97.30;;;;;;4987629;28;20276;-81
2022/07/01 13:35:30;;;;;;;6.93;5.10;;;16.80;97.30;;;;;;5000202;28;20802;-81
2022/07/01 13:37:56;;;;;;;7.93;5.20;;;16.80;97.30;;;;;;4997757;28;20475;-80
2022/07/01 13:40:21;;;;;;;13.00;5.87;;;16.80;97.30;;;;;;4995907;28;20492;-80
2022/07/01 13:42:47;;;;;;;11.73;7.43;;;16.80;97.30;;;;;;5000542;28;20174;-81
2022/07/01 13:45:13;;;;;;;8.80;6.13;;;16.80;97.30;;;;;;5002412;28;20189;-83
2022/07/01 13:47:39;;;;;;;11.20;6.90;;;16.70;97.30;;;;;;5004588;28;20582;-81
2022/07/01 13:50:05;;;;;;;13.73;7.80;;;16.70;97.30;;;;;;5002087;28;20190;-82
2022/07/01 13:52:31;;;;;;;8.27;5.60;;;16.70;97.30;;;;;;5003298;28;20520;-81
2022/07/01 13:54:58;;;;;;;9.93;6.83;;;16.60;97.30;;;;;;5003624;28;20475;-80
2022/07/01 13:57:24;;;;;;;15.23;6.53;;;16.50;97.30;;;;;;5021442;28;20224;-82
2022/07/01 13:59:49;;;;;;;15.03;7.27;;;16.50;97.30;;;;;;5024298;28;20490;-80
2022/07/01 14:02:17;;;;;;;13.63;8.13;;;16.40;97.30;;;;;;5001824;28;20901;-81
2022/07/01 14:04:43;;;;;;;8.77;5.60;;;16.30;97.30;;;;;;5001775;28;20557;-81
2022/07/01 14:07:08;;;;;;;9.30;6.07;;;16.30;97.30;;;;;;5004278;28;20491;-81